sensor_id;sensor_type;location;lat;lon;timestamp;pressure;altitude;pressure_sealevel;temperature;humidity
56070;BME280;41944;52.078;-0.058;2023-10-31T00:01:54;99538.51;;;7.77;100.00
56070;BME280;41944;52.078;-0.058;2023-10-31T00:04:21;99542.43;;;7.66;100.00
56070;BME280;41944;52.078;-0.058;2023-10-31T00:06:48;99546.46;;;7.55;100.00
56070;BME280;41944;52.078;-0.058;2023-10-31T00:09:15;99546.84;;;7.46;100.00
56070;BME280;41944;52.078;-0.058;2023-10-31T00:11:42;99549.17;;;7.44;100.00
56070;BME280;41944;52.078;-0.058;2023-10-31T00:14:10;99545.33;;;7.40;100.00
56070;BME280;41944;52.078;-0.058;2023-10-31T00:16:36;99550.41;;;7.44;100.00
56070;BME280;41944;52.078;-0.058;2023-10-31T00:19:03;99550.51;;;7.42;100.00
56070;BME280;41944;52.078;-0.058;2023-10-31T00:21:30;99548.37;;;7.38;100.00
56070;BME280;41944;52.078;-0.058;2023-10-31T00:23:57;99548.18;;;7.36;100.00
56070;BME280;41944;52.078;-0.058;2023-10-31T00:26:24;99548.31;;;7.34;100.00
56070;BME280;41944;52.078;-0.058;2023-10-31T00:28:51;99548.28;;;7.26;100.00
56070;BME280;41944;52.078;-0.058;2023-10-31T00:31:18;99549.91;;;7.21;100.00
56070;BME280;41944;52.078;-0.058;2023-10-31T00:33:45;99557.83;;;7.18;100.00
56070;BME280;41944;52.078;-0.058;2023-10-31T00:36:12;99565.21;;;7.17;100.00
56070;BME280;41944;52.078;-0.058;2023-10-31T00:38:38;99564.10;;;7.22;100.00
56070;BME280;41944;52.078;-0.058;2023-10-31T00:41:05;99558.84;;;7.23;100.00
56070;BME280;41944;52.078;-0.058;2023-10-31T00:43:32;99563.28;;;7.16;100.00
56070;BME280;41944;52.078;-0.058;2023-10-31T00:45:59;99560.71;;;7.11;100.00
56070;BME280;41944;52.078;-0.058;2023-10-31T00:48:26;99559.09;;;7.10;100.00
56070;BME280;41944;52.078;-0.058;2023-10-31T00:50:53;99560.02;;;7.05;100.00
56070;BME280;41944;52.078;-0.058;2023-10-31T00:53:20;99557.37;;;7.02;100.00
56070;BME280;41944;52.078;-0.058;2023-10-31T00:55:47;99556.74;;;7.00;100.00
56070;BME280;41944;52.078;-0.058;2023-10-31T00:58:14;99556.78;;;6.95;100.00
56070;BME280;41944;52.078;-0.058;2023-10-31T01:00:41;99555.25;;;6.93;100.00
56070;BME280;41944;52.078;-0.058;2023-10-31T01:03:08;99556.19;;;6.88;100.00
56070;BME280;41944;52.078;-0.058;2023-10-31T01:05:35;99556.45;;;6.90;100.00
56070;BME280;41944;52.078;-0.058;2023-10-31T01:08:03;99558.50;;;6.93;100.00
56070;BME280;41944;52.078;-0.058;2023-10-31T01:10:30;99559.08;;;6.89;100.00
56070;BME280;41944;52.078;-0.058;2023-10-31T01:12:58;99559.94;;;6.88;100.00
56070;BME280;41944;52.078;-0.058;2023-10-31T01:15:25;99562.33;;;6.87;100.00
56070;BME280;41944;52.078;-0.058;2023-10-31T01:17:51;99564.68;;;6.84;100.00
56070;BME280;41944;52.078;-0.058;2023-10-31T01:20:18;99562.83;;;6.79;100.00
56070;BME280;41944;52.078;-0.058;2023-10-31T01:22:45;99565.91;;;6.76;100.00
56070;BME280;41944;52.078;-0.058;2023-10-31T01:25:12;99566.31;;;6.76;100.00
56070;BME280;41944;52.078;-0.058;2023-10-31T01:27:39;99571.02;;;6.80;100.00
56070;BME280;41944;52.078;-0.058;2023-10-31T01:30:07;99571.75;;;6.79;100.00
56070;BME280;41944;52.078;-0.058;2023-10-31T01:32:35;99578.36;;;6.83;100.00
56070;BME280;41944;52.078;-0.058;2023-10-31T01:35:02;99579.71;;;6.80;100.00
56070;BME280;41944;52.078;-0.058;2023-10-31T01:37:30;99579.16;;;6.74;100.00
56070;BME280;41944;52.078;-0.058;2023-10-31T01:39:57;99581.01;;;6.78;100.00
56070;BME280;41944;52.078;-0.058;2023-10-31T01:42:24;99581.07;;;6.78;100.00
56070;BME280;41944;52.078;-0.058;2023-10-31T01:44:50;99578.72;;;6.90;100.00
56070;BME280;41944;52.078;-0.058;2023-10-31T01:47:17;99574.82;;;6.98;100.00
56070;BME280;41944;52.078;-0.058;2023-10-31T01:49:44;99575.82;;;6.87;100.00
56070;BME280;41944;52.078;-0.058;2023-10-31T01:52:11;99576.06;;;6.79;100.00
56070;BME280;41944;52.078;-0.058;2023-10-31T01:54:38;99582.92;;;6.67;100.00
56070;BME280;41944;52.078;-0.058;2023-10-31T01:57:05;99582.38;;;6.60;100.00
56070;BME280;41944;52.078;-0.058;2023-10-31T01:59:33;99583.64;;;6.64;100.00
56070;BME280;41944;52.078;-0.058;2023-10-31T02:02:01;99585.13;;;6.63;100.00
56070;BME280;41944;52.078;-0.058;2023-10-31T02:04:28;99586.85;;;6.64;100.00
56070;BME280;41944;52.078;-0.058;2023-10-31T02:06:55;99589.01;;;6.57;100.00
56070;BME280;41944;52.078;-0.058;2023-10-31T02:09:23;99592.69;;;6.52;100.00
56070;BME280;41944;52.078;-0.058;2023-10-31T02:11:50;99592.59;;;6.52;100.00
56070;BME280;41944;52.078;-0.058;2023-10-31T02:14:16;99591.03;;;6.93;100.00
56070;BME280;41944;52.078;-0.058;2023-10-31T02:16:43;99592.11;;;6.63;100.00
56070;BME280;41944;52.078;-0.058;2023-10-31T02:19:12;99587.61;;;6.59;100.00
56070;BME280;41944;52.078;-0.058;2023-10-31T02:21:41;99584.20;;;6.53;100.00
56070;BME280;41944;52.078;-0.058;2023-10-31T02:24:09;99582.72;;;6.53;100.00
56070;BME280;41944;52.078;-0.058;2023-10-31T02:26:35;99584.43;;;6.51;100.00
56070;BME280;41944;52.078;-0.058;2023-10-31T02:29:03;99585.82;;;6.46;100.00
56070;BME280;41944;52.078;-0.058;2023-10-31T02:31:30;99585.36;;;6.47;100.00
56070;BME280;41944;52.078;-0.058;2023-10-31T02:33:57;99585.17;;;6.45;100.00
56070;BME280;41944;52.078;-0.058;2023-10-31T02:36:24;99587.66;;;6.56;100.00
56070;BME280;41944;52.078;-0.058;2023-10-31T02:38:51;99589.27;;;6.51;100.00
56070;BME280;41944;52.078;-0.058;2023-10-31T02:41:18;99587.65;;;6.45;100.00
56070;BME280;41944;52.078;-0.058;2023-10-31T02:43:45;99589.59;;;6.43;100.00
56070;BME280;41944;52.078;-0.058;2023-10-31T02:46:12;99590.30;;;6.26;100.00
56070;BME280;41944;52.078;-0.058;2023-10-31T02:48:39;99589.48;;;6.33;100.00
56070;BME280;41944;52.078;-0.058;2023-10-31T02:51:07;99583.82;;;6.38;100.00
56070;BME280;41944;52.078;-0.058;2023-10-31T02:53:34;99588.50;;;6.26;100.00
56070;BME280;41944;52.078;-0.058;2023-10-31T02:56:01;99590.37;;;6.31;100.00
56070;BME280;41944;52.078;-0.058;2023-10-31T02:58:28;99590.48;;;6.27;100.00
56070;BME280;41944;52.078;-0.058;2023-10-31T03:00:55;99596.15;;;6.16;100.00
56070;BME280;41944;52.078;-0.058;2023-10-31T03:03:22;99591.95;;;6.11;100.00
56070;BME280;41944;52.078;-0.058;2023-10-31T03:05:49;99593.45;;;6.18;100.00
56070;BME280;41944;52.078;-0.058;2023-10-31T03:08:16;99589.46;;;6.09;100.00
56070;BME280;41944;52.078;-0.058;2023-10-31T03:10:43;99588.67;;;6.13;100.00
56070;BME280;41944;52.078;-0.058;2023-10-31T03:13:10;99587.07;;;6.06;100.00
56070;BME280;41944;52.078;-0.058;2023-10-31T03:15:37;99585.35;;;6.01;100.00
56070;BME280;41944;52.078;-0.058;2023-10-31T03:18:04;99590.26;;;6.12;100.00
56070;BME280;41944;52.078;-0.058;2023-10-31T03:20:33;99592.49;;;6.14;100.00
56070;BME280;41944;52.078;-0.058;2023-10-31T03:23:00;99594.94;;;6.23;100.00
56070;BME280;41944;52.078;-0.058;2023-10-31T03:25:27;99594.26;;;6.37;100.00
56070;BME280;41944;52.078;-0.058;2023-10-31T03:27:53;99590.75;;;6.18;100.00
56070;BME280;41944;52.078;-0.058;2023-10-31T03:30:20;99589.86;;;6.27;100.00
56070;BME280;41944;52.078;-0.058;2023-10-31T03:32:47;99593.27;;;6.25;100.00
56070;BME280;41944;52.078;-0.058;2023-10-31T03:35:14;99598.23;;;6.13;100.00
56070;BME280;41944;52.078;-0.058;2023-10-31T03:37:42;99600.76;;;6.05;100.00
56070;BME280;41944;52.078;-0.058;2023-10-31T03:40:10;99604.39;;;6.05;100.00
56070;BME280;41944;52.078;-0.058;2023-10-31T03:42:37;99601.78;;;6.06;100.00
56070;BME280;41944;52.078;-0.058;2023-10-31T03:45:04;99597.69;;;6.14;100.00
56070;BME280;41944;52.078;-0.058;2023-10-31T03:47:31;99602.55;;;6.28;100.00
56070;BME280;41944;52.078;-0.058;2023-10-31T03:49:58;99599.09;;;6.43;100.00
56070;BME280;41944;52.078;-0.058;2023-10-31T03:52:25;99598.45;;;6.28;100.00
56070;BME280;41944;52.078;-0.058;2023-10-31T03:54:52;99597.36;;;6.30;100.00
56070;BME280;41944;52.078;-0.058;2023-10-31T03:57:19;99594.77;;;6.21;100.00
56070;BME280;41944;52.078;-0.058;2023-10-31T03:59:47;99600.31;;;6.08;100.00
56070;BME280;41944;52.078;-0.058;2023-10-31T04:02:14;99598.49;;;6.11;100.00
56070;BME280;41944;52.078;-0.058;2023-10-31T04:04:41;99598.89;;;6.00;100.00
56070;BME280;41944;52.078;-0.058;2023-10-31T04:07:08;99598.51;;;5.94;100.00
56070;BME280;41944;52.078;-0.058;2023-10-31T04:09:35;99598.68;;;6.11;100.00
56070;BME280;41944;52.078;-0.058;2023-10-31T04:12:02;99594.40;;;6.11;100.00
56070;BME280;41944;52.078;-0.058;2023-10-31T04:14:30;99591.61;;;6.19;100.00
56070;BME280;41944;52.078;-0.058;2023-10-31T04:16:57;99587.44;;;6.07;100.00
56070;BME280;41944;52.078;-0.058;2023-10-31T04:19:23;99591.56;;;5.96;100.00
56070;BME280;41944;52.078;-0.058;2023-10-31T04:21:51;99590.21;;;6.11;100.00
56070;BME280;41944;52.078;-0.058;2023-10-31T04:24:18;99592.62;;;6.08;100.00
56070;BME280;41944;52.078;-0.058;2023-10-31T04:26:45;99597.21;;;5.95;100.00
56070;BME280;41944;52.078;-0.058;2023-10-31T04:29:12;99600.17;;;5.80;100.00
56070;BME280;41944;52.078;-0.058;2023-10-31T04:31:39;99600.48;;;5.87;100.00
56070;BME280;41944;52.078;-0.058;2023-10-31T04:34:06;99603.36;;;6.01;100.00
56070;BME280;41944;52.078;-0.058;2023-10-31T04:36:33;99605.78;;;6.25;100.00
56070;BME280;41944;52.078;-0.058;2023-10-31T04:39:00;99607.03;;;6.37;100.00
56070;BME280;41944;52.078;-0.058;2023-10-31T04:41:26;99608.05;;;6.32;100.00
56070;BME280;41944;52.078;-0.058;2023-10-31T04:43:54;99603.43;;;6.40;100.00
56070;BME280;41944;52.078;-0.058;2023-10-31T04:46:21;99608.06;;;6.35;100.00
56070;BME280;41944;52.078;-0.058;2023-10-31T04:48:48;99606.13;;;6.35;100.00
56070;BME280;41944;52.078;-0.058;2023-10-31T04:51:15;99607.78;;;6.28;100.00
56070;BME280;41944;52.078;-0.058;2023-10-31T04:53:42;99609.87;;;6.23;100.00
56070;BME280;41944;52.078;-0.058;2023-10-31T04:56:12;99610.28;;;6.21;100.00
56070;BME280;41944;52.078;-0.058;2023-10-31T04:58:40;99613.09;;;6.25;100.00
56070;BME280;41944;52.078;-0.058;2023-10-31T05:01:08;99619.44;;;6.12;100.00
56070;BME280;41944;52.078;-0.058;2023-10-31T05:03:35;99617.13;;;6.17;100.00
56070;BME280;41944;52.078;-0.058;2023-10-31T05:06:04;99615.61;;;6.35;100.00
56070;BME280;41944;52.078;-0.058;2023-10-31T05:08:31;99616.63;;;6.31;100.00
56070;BME280;41944;52.078;-0.058;2023-10-31T05:10:59;99621.16;;;6.16;100.00
56070;BME280;41944;52.078;-0.058;2023-10-31T05:13:26;99621.34;;;6.18;100.00
56070;BME280;41944;52.078;-0.058;2023-10-31T05:15:52;99613.60;;;6.12;100.00
56070;BME280;41944;52.078;-0.058;2023-10-31T05:18:19;99613.95;;;6.23;100.00
56070;BME280;41944;52.078;-0.058;2023-10-31T05:20:47;99616.80;;;6.42;100.00
56070;BME280;41944;52.078;-0.058;2023-10-31T05:23:14;99618.84;;;6.46;100.00
56070;BME280;41944;52.078;-0.058;2023-10-31T05:25:41;99621.37;;;6.43;100.00
56070;BME280;41944;52.078;-0.058;2023-10-31T05:28:08;99620.64;;;6.58;100.00
56070;BME280;41944;52.078;-0.058;2023-10-31T05:30:35;99623.60;;;6.51;100.00
56070;BME280;41944;52.078;-0.058;2023-10-31T05:33:02;99623.02;;;6.58;100.00
56070;BME280;41944;52.078;-0.058;2023-10-31T05:35:30;99625.53;;;6.57;100.00
56070;BME280;41944;52.078;-0.058;2023-10-31T05:37:57;99627.24;;;6.62;100.00
56070;BME280;41944;52.078;-0.058;2023-10-31T05:40:24;99633.20;;;6.72;100.00
56070;BME280;41944;52.078;-0.058;2023-10-31T05:42:51;99635.10;;;6.64;100.00
56070;BME280;41944;52.078;-0.058;2023-10-31T05:45:18;99634.72;;;6.86;100.00
56070;BME280;41944;52.078;-0.058;2023-10-31T05:47:45;99633.23;;;6.78;100.00
56070;BME280;41944;52.078;-0.058;2023-10-31T05:50:12;99635.66;;;6.73;100.00
56070;BME280;41944;52.078;-0.058;2023-10-31T05:52:39;99640.43;;;6.81;100.00
56070;BME280;41944;52.078;-0.058;2023-10-31T05:55:07;99646.81;;;7.05;100.00
56070;BME280;41944;52.078;-0.058;2023-10-31T05:57:34;99649.44;;;7.03;100.00
56070;BME280;41944;52.078;-0.058;2023-10-31T06:00:01;99652.61;;;6.95;100.00
56070;BME280;41944;52.078;-0.058;2023-10-31T06:02:28;99653.67;;;6.94;100.00
56070;BME280;41944;52.078;-0.058;2023-10-31T06:04:56;99655.60;;;6.83;100.00
56070;BME280;41944;52.078;-0.058;2023-10-31T06:07:23;99659.38;;;7.06;100.00
56070;BME280;41944;52.078;-0.058;2023-10-31T06:09:50;99658.22;;;6.95;100.00
56070;BME280;41944;52.078;-0.058;2023-10-31T06:12:17;99664.25;;;7.16;100.00
56070;BME280;41944;52.078;-0.058;2023-10-31T06:14:44;99663.87;;;7.09;100.00
56070;BME280;41944;52.078;-0.058;2023-10-31T06:17:11;99668.34;;;7.22;100.00
56070;BME280;41944;52.078;-0.058;2023-10-31T06:19:38;99666.72;;;7.47;100.00
56070;BME280;41944;52.078;-0.058;2023-10-31T06:22:06;99663.25;;;7.63;100.00
56070;BME280;41944;52.078;-0.058;2023-10-31T06:24:33;99663.31;;;7.72;100.00
56070;BME280;41944;52.078;-0.058;2023-10-31T06:27:00;99665.55;;;7.72;100.00
56070;BME280;41944;52.078;-0.058;2023-10-31T06:29:27;99664.08;;;7.71;100.00
56070;BME280;41944;52.078;-0.058;2023-10-31T06:31:54;99669.28;;;7.64;100.00
56070;BME280;41944;52.078;-0.058;2023-10-31T06:34:21;99670.69;;;7.49;100.00
56070;BME280;41944;52.078;-0.058;2023-10-31T06:36:48;99674.09;;;7.57;100.00
56070;BME280;41944;52.078;-0.058;2023-10-31T06:39:15;99671.98;;;7.48;100.00
56070;BME280;41944;52.078;-0.058;2023-10-31T06:41:42;99671.35;;;7.62;100.00
56070;BME280;41944;52.078;-0.058;2023-10-31T06:44:10;99666.66;;;7.68;100.00
56070;BME280;41944;52.078;-0.058;2023-10-31T06:46:37;99666.05;;;7.63;100.00
56070;BME280;41944;52.078;-0.058;2023-10-31T06:49:04;99669.08;;;7.81;100.00
56070;BME280;41944;52.078;-0.058;2023-10-31T06:51:31;99675.80;;;7.69;100.00
56070;BME280;41944;52.078;-0.058;2023-10-31T06:53:58;99679.71;;;7.73;100.00
56070;BME280;41944;52.078;-0.058;2023-10-31T06:56:25;99674.64;;;7.80;100.00
56070;BME280;41944;52.078;-0.058;2023-10-31T06:58:52;99664.33;;;7.97;100.00
56070;BME280;41944;52.078;-0.058;2023-10-31T07:01:19;99661.33;;;8.05;100.00
56070;BME280;41944;52.078;-0.058;2023-10-31T07:03:47;99665.95;;;8.12;100.00
56070;BME280;41944;52.078;-0.058;2023-10-31T07:06:15;99665.24;;;7.91;100.00
56070;BME280;41944;52.078;-0.058;2023-10-31T07:08:42;99665.81;;;7.90;100.00
56070;BME280;41944;52.078;-0.058;2023-10-31T07:11:09;99667.39;;;7.99;100.00
56070;BME280;41944;52.078;-0.058;2023-10-31T07:13:36;99672.92;;;8.20;100.00
56070;BME280;41944;52.078;-0.058;2023-10-31T07:16:04;99675.51;;;8.39;100.00
56070;BME280;41944;52.078;-0.058;2023-10-31T07:18:32;99678.35;;;8.21;100.00
56070;BME280;41944;52.078;-0.058;2023-10-31T07:20:59;99684.19;;;8.23;100.00
56070;BME280;41944;52.078;-0.058;2023-10-31T07:23:26;99685.89;;;8.27;100.00
56070;BME280;41944;52.078;-0.058;2023-10-31T07:25:52;99689.13;;;8.36;100.00
56070;BME280;41944;52.078;-0.058;2023-10-31T07:28:19;99692.18;;;8.49;100.00
56070;BME280;41944;52.078;-0.058;2023-10-31T07:30:47;99694.91;;;8.51;100.00
56070;BME280;41944;52.078;-0.058;2023-10-31T07:33:14;99693.17;;;8.51;100.00
56070;BME280;41944;52.078;-0.058;2023-10-31T07:35:42;99694.27;;;8.61;100.00
56070;BME280;41944;52.078;-0.058;2023-10-31T07:38:09;99695.26;;;8.61;100.00
56070;BME280;41944;52.078;-0.058;2023-10-31T07:40:37;99698.06;;;8.70;100.00
56070;BME280;41944;52.078;-0.058;2023-10-31T07:43:04;99703.51;;;8.77;100.00
56070;BME280;41944;52.078;-0.058;2023-10-31T07:45:31;99710.97;;;8.79;100.00
56070;BME280;41944;52.078;-0.058;2023-10-31T07:47:58;99717.39;;;8.90;100.00
56070;BME280;41944;52.078;-0.058;2023-10-31T07:50:25;99721.96;;;8.80;100.00
56070;BME280;41944;52.078;-0.058;2023-10-31T07:52:52;99730.27;;;8.78;100.00
56070;BME280;41944;52.078;-0.058;2023-10-31T07:55:19;99734.05;;;8.94;100.00
56070;BME280;41944;52.078;-0.058;2023-10-31T07:57:46;99738.10;;;9.07;100.00
56070;BME280;41944;52.078;-0.058;2023-10-31T08:00:14;99734.39;;;9.11;100.00
56070;BME280;41944;52.078;-0.058;2023-10-31T08:02:42;99734.16;;;9.28;100.00
56070;BME280;41944;52.078;-0.058;2023-10-31T08:05:10;99731.71;;;9.33;100.00
56070;BME280;41944;52.078;-0.058;2023-10-31T08:07:37;99730.98;;;9.43;100.00
56070;BME280;41944;52.078;-0.058;2023-10-31T08:10:05;99734.82;;;9.54;100.00
56070;BME280;41944;52.078;-0.058;2023-10-31T08:12:33;99735.84;;;9.49;100.00
56070;BME280;41944;52.078;-0.058;2023-10-31T08:15:00;99738.60;;;9.63;100.00
56070;BME280;41944;52.078;-0.058;2023-10-31T08:17:27;99741.20;;;9.69;100.00
56070;BME280;41944;52.078;-0.058;2023-10-31T08:19:55;99738.88;;;9.80;100.00
56070;BME280;41944;52.078;-0.058;2023-10-31T08:22:22;99739.24;;;9.81;100.00
56070;BME280;41944;52.078;-0.058;2023-10-31T08:24:50;99739.75;;;9.86;100.00
56070;BME280;41944;52.078;-0.058;2023-10-31T08:27:17;99738.26;;;9.87;100.00
56070;BME280;41944;52.078;-0.058;2023-10-31T08:29:44;99736.22;;;9.91;100.00
56070;BME280;41944;52.078;-0.058;2023-10-31T08:32:12;99734.30;;;9.96;100.00
56070;BME280;41944;52.078;-0.058;2023-10-31T08:34:39;99736.19;;;9.76;100.00
56070;BME280;41944;52.078;-0.058;2023-10-31T08:37:06;99733.95;;;9.82;100.00
56070;BME280;41944;52.078;-0.058;2023-10-31T08:39:33;99735.41;;;9.93;100.00
56070;BME280;41944;52.078;-0.058;2023-10-31T08:42:00;99732.41;;;9.98;100.00
56070;BME280;41944;52.078;-0.058;2023-10-31T08:44:28;99736.44;;;10.02;100.00
56070;BME280;41944;52.078;-0.058;2023-10-31T08:46:55;99737.53;;;10.15;100.00
56070;BME280;41944;52.078;-0.058;2023-10-31T08:49:22;99735.87;;;10.08;100.00
56070;BME280;41944;52.078;-0.058;2023-10-31T08:51:49;99732.88;;;10.17;100.00
56070;BME280;41944;52.078;-0.058;2023-10-31T08:54:16;99728.85;;;10.32;100.00
56070;BME280;41944;52.078;-0.058;2023-10-31T08:56:43;99727.05;;;10.54;100.00
56070;BME280;41944;52.078;-0.058;2023-10-31T08:59:10;99730.25;;;10.50;100.00
56070;BME280;41944;52.078;-0.058;2023-10-31T09:01:37;99732.31;;;10.43;100.00
56070;BME280;41944;52.078;-0.058;2023-10-31T09:04:04;99730.83;;;10.58;100.00
56070;BME280;41944;52.078;-0.058;2023-10-31T09:06:32;99728.46;;;10.63;100.00
56070;BME280;41944;52.078;-0.058;2023-10-31T09:08:59;99728.53;;;10.69;100.00
56070;BME280;41944;52.078;-0.058;2023-10-31T09:11:26;99724.50;;;10.65;100.00
56070;BME280;41944;52.078;-0.058;2023-10-31T09:13:54;99727.40;;;10.80;100.00
56070;BME280;41944;52.078;-0.058;2023-10-31T09:16:20;99731.89;;;10.81;100.00
56070;BME280;41944;52.078;-0.058;2023-10-31T09:18:48;99730.39;;;10.85;100.00
56070;BME280;41944;52.078;-0.058;2023-10-31T09:21:15;99731.43;;;10.95;100.00
56070;BME280;41944;52.078;-0.058;2023-10-31T09:23:42;99736.97;;;10.89;100.00
56070;BME280;41944;52.078;-0.058;2023-10-31T09:26:09;99737.62;;;10.88;100.00
56070;BME280;41944;52.078;-0.058;2023-10-31T09:28:37;99739.08;;;10.93;100.00
56070;BME280;41944;52.078;-0.058;2023-10-31T09:31:04;99744.91;;;11.24;100.00
56070;BME280;41944;52.078;-0.058;2023-10-31T09:33:31;99748.34;;;11.42;100.00
56070;BME280;41944;52.078;-0.058;2023-10-31T09:35:58;99748.22;;;11.52;100.00
56070;BME280;41944;52.078;-0.058;2023-10-31T09:38:25;99747.48;;;11.61;100.00
56070;BME280;41944;52.078;-0.058;2023-10-31T09:40:52;99756.37;;;11.62;100.00
56070;BME280;41944;52.078;-0.058;2023-10-31T09:43:19;99755.68;;;11.81;100.00
56070;BME280;41944;52.078;-0.058;2023-10-31T09:45:47;99756.10;;;12.07;100.00
56070;BME280;41944;52.078;-0.058;2023-10-31T09:48:14;99765.55;;;12.27;100.00
56070;BME280;41944;52.078;-0.058;2023-10-31T09:50:42;99766.56;;;12.43;100.00
56070;BME280;41944;52.078;-0.058;2023-10-31T09:53:10;99765.24;;;12.51;100.00
56070;BME280;41944;52.078;-0.058;2023-10-31T09:55:38;99762.52;;;12.70;100.00
56070;BME280;41944;52.078;-0.058;2023-10-31T09:58:05;99770.04;;;12.79;100.00
56070;BME280;41944;52.078;-0.058;2023-10-31T10:00:32;99771.15;;;12.86;100.00
56070;BME280;41944;52.078;-0.058;2023-10-31T10:02:59;99769.07;;;12.89;100.00
56070;BME280;41944;52.078;-0.058;2023-10-31T10:05:28;99762.38;;;13.09;100.00
56070;BME280;41944;52.078;-0.058;2023-10-31T10:07:57;99762.61;;;12.99;100.00
56070;BME280;41944;52.078;-0.058;2023-10-31T10:10:25;99761.70;;;13.21;100.00
56070;BME280;41944;52.078;-0.058;2023-10-31T10:12:52;99769.56;;;13.07;100.00
56070;BME280;41944;52.078;-0.058;2023-10-31T10:15:20;99767.95;;;13.20;100.00
56070;BME280;41944;52.078;-0.058;2023-10-31T10:17:49;99767.00;;;13.37;100.00
56070;BME280;41944;52.078;-0.058;2023-10-31T10:20:17;99769.82;;;13.47;100.00
56070;BME280;41944;52.078;-0.058;2023-10-31T10:22:45;99775.11;;;13.42;100.00
56070;BME280;41944;52.078;-0.058;2023-10-31T10:25:14;99773.19;;;13.41;100.00
56070;BME280;41944;52.078;-0.058;2023-10-31T10:27:42;99772.66;;;13.55;100.00
56070;BME280;41944;52.078;-0.058;2023-10-31T10:30:10;99769.48;;;13.42;100.00
56070;BME280;41944;52.078;-0.058;2023-10-31T10:32:38;99765.30;;;13.32;100.00
56070;BME280;41944;52.078;-0.058;2023-10-31T10:35:06;99762.12;;;13.48;100.00
56070;BME280;41944;52.078;-0.058;2023-10-31T10:37:37;99761.09;;;13.48;100.00
56070;BME280;41944;52.078;-0.058;2023-10-31T10:40:07;99766.08;;;13.59;100.00
56070;BME280;41944;52.078;-0.058;2023-10-31T10:42:44;99767.08;;;13.58;100.00
56070;BME280;41944;52.078;-0.058;2023-10-31T10:45:13;99768.78;;;13.59;100.00
56070;BME280;41944;52.078;-0.058;2023-10-31T10:47:42;99773.26;;;13.90;100.00
56070;BME280;41944;52.078;-0.058;2023-10-31T10:50:12;99773.13;;;13.78;100.00
56070;BME280;41944;52.078;-0.058;2023-10-31T10:52:44;99769.21;;;13.85;100.00
56070;BME280;41944;52.078;-0.058;2023-10-31T10:55:13;99772.90;;;14.01;100.00
56070;BME280;41944;52.078;-0.058;2023-10-31T10:57:51;99771.34;;;14.20;100.00
56070;BME280;41944;52.078;-0.058;2023-10-31T11:00:22;99773.84;;;14.52;99.27
56070;BME280;41944;52.078;-0.058;2023-10-31T11:02:51;99780.23;;;14.70;96.06
56070;BME280;41944;52.078;-0.058;2023-10-31T11:05:19;99781.92;;;14.80;96.46
56070;BME280;41944;52.078;-0.058;2023-10-31T11:07:47;99784.76;;;14.67;96.45
56070;BME280;41944;52.078;-0.058;2023-10-31T11:10:17;99782.54;;;14.73;93.97
56070;BME280;41944;52.078;-0.058;2023-10-31T11:12:44;99783.11;;;14.55;94.93
56070;BME280;41944;52.078;-0.058;2023-10-31T11:15:14;99782.90;;;14.55;96.23
56070;BME280;41944;52.078;-0.058;2023-10-31T11:17:44;99781.28;;;14.53;97.06
56070;BME280;41944;52.078;-0.058;2023-10-31T11:20:13;99778.86;;;14.66;95.50
56070;BME280;41944;52.078;-0.058;2023-10-31T11:22:41;99777.72;;;14.79;93.63
56070;BME280;41944;52.078;-0.058;2023-10-31T11:25:09;99779.25;;;14.73;95.84
56070;BME280;41944;52.078;-0.058;2023-10-31T11:27:37;99778.32;;;14.59;97.62
56070;BME280;41944;52.078;-0.058;2023-10-31T11:30:06;99781.39;;;14.68;96.52
56070;BME280;41944;52.078;-0.058;2023-10-31T11:32:34;99782.70;;;14.51;96.87
56070;BME280;41944;52.078;-0.058;2023-10-31T11:35:01;99779.67;;;14.62;96.61
56070;BME280;41944;52.078;-0.058;2023-10-31T11:37:32;99782.08;;;14.58;97.13
56070;BME280;41944;52.078;-0.058;2023-10-31T11:40:16;99778.69;;;14.63;97.30
56070;BME280;41944;52.078;-0.058;2023-10-31T11:42:44;99779.97;;;14.94;95.26
56070;BME280;41944;52.078;-0.058;2023-10-31T11:45:25;99781.77;;;14.94;94.71
56070;BME280;41944;52.078;-0.058;2023-10-31T11:47:53;99782.96;;;15.09;94.12
56070;BME280;41944;52.078;-0.058;2023-10-31T11:50:20;99783.68;;;15.13;93.81
56070;BME280;41944;52.078;-0.058;2023-10-31T11:52:59;99782.36;;;15.24;95.65
56070;BME280;41944;52.078;-0.058;2023-10-31T11:55:27;99778.22;;;15.39;94.01
56070;BME280;41944;52.078;-0.058;2023-10-31T11:57:54;99780.04;;;15.44;94.82
56070;BME280;41944;52.078;-0.058;2023-10-31T12:00:22;99779.20;;;15.66;92.15
56070;BME280;41944;52.078;-0.058;2023-10-31T12:03:00;99780.91;;;15.83;91.99
56070;BME280;41944;52.078;-0.058;2023-10-31T12:05:27;99778.23;;;16.05;89.91
56070;BME280;41944;52.078;-0.058;2023-10-31T12:07:56;99776.71;;;15.99;90.92
56070;BME280;41944;52.078;-0.058;2023-10-31T12:10:24;99769.43;;;16.25;89.17
56070;BME280;41944;52.078;-0.058;2023-10-31T12:12:51;99772.30;;;16.45;86.86
56070;BME280;41944;52.078;-0.058;2023-10-31T12:15:19;99773.96;;;16.62;86.62
56070;BME280;41944;52.078;-0.058;2023-10-31T12:17:45;99775.10;;;16.70;84.36
56070;BME280;41944;52.078;-0.058;2023-10-31T12:20:13;99776.01;;;16.65;83.72
56070;BME280;41944;52.078;-0.058;2023-10-31T12:22:40;99775.84;;;16.44;83.77
56070;BME280;41944;52.078;-0.058;2023-10-31T12:25:08;99773.41;;;16.43;84.66
56070;BME280;41944;52.078;-0.058;2023-10-31T12:27:44;99769.73;;;16.35;85.05
56070;BME280;41944;52.078;-0.058;2023-10-31T12:30:12;99770.60;;;16.22;84.47
56070;BME280;41944;52.078;-0.058;2023-10-31T12:32:40;99773.25;;;16.13;84.44
56070;BME280;41944;52.078;-0.058;2023-10-31T12:35:09;99776.81;;;16.11;85.19
56070;BME280;41944;52.078;-0.058;2023-10-31T12:37:38;99782.49;;;16.04;86.12
56070;BME280;41944;52.078;-0.058;2023-10-31T12:40:07;99788.85;;;16.02;86.70
56070;BME280;41944;52.078;-0.058;2023-10-31T12:42:35;99793.86;;;16.06;86.80
56070;BME280;41944;52.078;-0.058;2023-10-31T12:45:03;99792.01;;;16.00;86.95
56070;BME280;41944;52.078;-0.058;2023-10-31T12:47:30;99793.99;;;15.98;86.55
56070;BME280;41944;52.078;-0.058;2023-10-31T12:50:14;99790.94;;;15.86;86.66